Regional Weather

 

KMKL - Jackson, TN, USA
Distance from station: WNW 50mi, 81km
Updated: Tue, Jan-15-2019 7:53pm CST
Clear
Clear
 Wind from SSW
Wind: SSW 3 mph , 6 km/h
Temperature: 28°F , -2°C
Dew Point: 28°F , -2°C
Humidity: 100%
Barometer: 30.27 inHg , 1025.1 hPa
Clouds: Clear
Visibility: 9 miles , 14 km
2019/01/16 01:53 KMKL 160153Z AUTO 20003KT 9SM CLR M02/M02 A3027 RMK AO2 SLP253 T10171022
KMEM - Memphis, TN, USA
Distance from station: W 108mi, 173km
Updated: Tue, Jan-15-2019 7:54pm CST
Few Clouds
Few Clouds
 Wind from calm
Wind: Calm
Temperature: 37°F , 3°C
Dew Point: 34°F , 1°C
Humidity: 87%
Barometer: 30.28 inHg , 1025.4 hPa
Clouds: Few Clouds
Visibility: 10 miles , 16 km
Cloud details: Few Clouds 25000 ft
2019/01/16 01:54 KMEM 160154Z 00000KT 10SM FEW250 03/01 A3028 RMK AO2 SLP255 T00280006
 
KBNA - Nashville, TN, USA
Distance from station: NE 97mi, 157km
Updated: Tue, Jan-15-2019 7:53pm CST
Overcast
Overcast
 Wind from SSW
Wind: SSW 8 mph , 13 km/h
Temperature: 37°F , 3°C
Wind Chill: 31°F , -1°C
Dew Point: 28°F , -2°C
Humidity: 70%
Barometer: 30.29 inHg , 1025.7 hPa
Clouds: Overcast
Visibility: 10 miles , 16 km
Cloud details: Overcast 2000 ft
2019/01/16 01:53 KBNA 160153Z 20007KT 10SM OVC020 03/M02 A3029 RMK AO2 SLP262 T00281017
KCKV - Clarksville, TN, USA
Distance from station: NNE 99mi, 159km
Updated: Tue, Jan-15-2019 7:52pm CST
Overcast
Overcast
 Wind from SW
Wind: SW 7 mph , 11 km/h
Temperature: 37°F , 3°C
Wind Chill: 32°F , 0°C
Dew Point: 28°F , -2°C
Humidity: 70%
Barometer: 30.27 inHg , 1025.1 hPa
Clouds: Overcast
Visibility: 10 miles , 16 km
Cloud details: Overcast 2000 ft
2019/01/16 01:52 KCKV 160152Z AUTO 23006KT 10SM OVC020 03/M02 A3027 RMK AO2 SLP253 T00331017
 
KPAH - Paducah, KY, USA
Distance from station: NNW 128mi, 205km
Updated: Tue, Jan-15-2019 7:53pm CST
Overcast
Overcast
 Wind from SW
Wind: SW 7 mph , 11 km/h
Temperature: 39°F , 4°C
Wind Chill: 34°F , 1°C
Dew Point: 32°F , 0°C
Humidity: 75%
Barometer: 30.24 inHg , 1024 hPa
Clouds: Overcast
Visibility: 10 miles , 16 km
Cloud details: Overcast 1300 ft
2019/01/16 01:53 KPAH 160153Z 22006KT 10SM OVC013 04/00 A3024 RMK AO2 SLP244 T00390000
KCHA - Chattanooga, TN, USA
Distance from station: E 165mi, 265km
Updated: Tue, Jan-15-2019 7:53pm CST
Overcast
Overcast
 Wind from SW
Wind: SW 5 mph , 7 km/h
Temperature: 37°F , 3°C
Wind Chill: 33°F , 1°C
Dew Point: 27°F , -3°C
Humidity: 65%
Barometer: 30.30 inHg , 1026.1 hPa
Clouds: Overcast
Visibility: 10 miles , 16 km
Cloud details: Overcast 2200 ft
2019/01/16 01:53 KCHA 160153Z 22004KT 10SM OVC022 03/M03 A3030 RMK AO2 SLP263 T00281028
 
KTYS - Knoxville, TN, USA
Distance from station: E 234mi, 377km
Updated: Tue, Jan-15-2019 7:53pm CST
Overcast
Overcast
 Wind from WSW
Wind: WSW 6 mph , 9 km/h
Temperature: 36°F , 2°C
Wind Chill: 31°F , -1°C
Dew Point: 28°F , -2°C
Humidity: 75%
Barometer: 30.24 inHg , 1024 hPa
Clouds: Overcast
Visibility: 10 miles , 16 km
Cloud details: Overcast 2100 ft
2019/01/16 01:53 KTYS 160153Z 25005KT 10SM OVC021 02/M02 A3024 RMK AO2 SLP247 T00171022
KLIT - Little Rock, AR, USA
Distance from station: W 240mi, 386km
Updated: Tue, Jan-15-2019 7:53pm CST
Mostly cloudy
Mostly cloudy
 Wind from SSW
Wind: SSW 6 mph , 9 km/h
Temperature: 36°F , 2°C
Wind Chill: 31°F , -1°C
Dew Point: 34°F , 1°C
Humidity: 93%
Barometer: 30.29 inHg , 1025.7 hPa
Clouds: Mostly cloudy
Visibility: 9 miles , 14 km
Cloud details: Mostly cloudy 25000 ft
2019/01/16 01:53 KLIT 160153Z 20005KT 9SM BKN250 02/01 A3029 RMK AO2 SLP260 T00220006

Refresh Page for latest data.